Terminal Aerodrome Forecast
Issued by NWS

Home | Current Version | Previous Version | Text Only | Print | Product List | Glossary On
Versions: 1 2 3 4 5 6 7 8 9 10 11 12 13 14 15 16 17 18 19
000
FTUS43 KPAH 281307 AAA
TAFCGI
TAF AMD
KCGI 281307Z 2813/2912 VRB03KT P6SM SCT005
      TEMPO 2813/2814 BKN005
     FM281530 16010KT P6SM BKN035
     FM290100 16007KT P6SM BKN030=

USA.gov is the U.S. government's official web portal to all federal, state and local government web resources and services.